Time;durP1;ratioP1;P1;durP2;ratioP2;P2;SDS_P1;SDS_P2;PMS_P1;PMS_P2;Temp;Humidity;BMP_temperature;BMP_pressure;BME280_temperature;BME280_humidity;BME280_pressure;Samples;Min_cycle;Max_cycle;Signal;HPM_P1;HPM_P2
2022/04/25 00:01:30;;;;;;;6.50;2.90;;;;;;;6.75;94.22;99335.47;5073631;28;20033;-81
2022/04/25 00:03:55;;;;;;;5.83;2.67;;;;;;;6.77;94.23;99336.09;5087050;28;20048;-83
2022/04/25 00:06:21;;;;;;;6.90;3.50;;;;;;;6.78;94.05;99330.53;5084069;28;20063;-81
2022/04/25 00:08:46;;;;;;;6.80;3.08;;;;;;;6.74;94.07;99334.63;5083558;28;20028;-81
2022/04/25 00:11:11;;;;;;;6.45;2.50;;;;;;;6.73;93.95;99335.66;5082439;28;20451;-80
2022/04/25 00:13:37;;;;;;;7.73;2.90;;;;;;;6.75;94.48;99341.63;5082920;28;20459;-81
2022/04/25 00:16:03;;;;;;;7.97;2.50;;;;;;;6.79;93.99;99342.88;5080285;28;20085;-81
2022/04/25 00:18:29;;;;;;;10.15;3.15;;;;;;;6.83;94.89;99345.94;5080273;28;20063;-81
2022/04/25 00:20:55;;;;;;;5.25;2.40;;;;;;;6.80;94.36;99352.56;5079844;28;20464;-82
2022/04/25 00:23:21;;;;;;;6.25;2.70;;;;;;;6.75;94.48;99338.97;5060900;28;20425;-80
2022/04/25 00:25:46;;;;;;;6.38;2.78;;;;;;;6.85;95.42;99349.25;5078955;28;20040;-81
2022/04/25 00:28:11;;;;;;;7.57;2.93;;;;;;;6.80;95.46;99339.19;5078986;28;20062;-80
2022/04/25 00:30:37;;;;;;;5.23;2.37;;;;;;;7.01;94.62;99338.09;5078953;28;20043;-80
2022/04/25 00:33:02;;;;;;;5.97;2.73;;;;;;;6.97;93.29;99342.25;5078800;28;20255;-80
2022/04/25 00:35:28;;;;;;;5.47;2.10;;;;;;;6.91;94.22;99343.06;5078377;28;20408;-80
2022/04/25 00:37:54;;;;;;;6.28;2.25;;;;;;;6.90;94.79;99344.91;5061654;28;20677;-81
2022/04/25 00:40:21;;;;;;;5.28;2.38;;;;;;;6.99;93.51;99337.47;5078522;28;20032;-81
2022/04/25 00:42:47;;;;;;;7.05;2.55;;;;;;;6.99;93.14;99339.38;5060884;28;20044;-82
2022/04/25 00:45:13;;;;;;;;;;;;;;;7.07;92.43;99339.13;5079525;28;20449;-81
2022/04/25 00:47:40;;;;;;;5.70;2.13;;;;;;;7.16;91.36;99344.06;5079083;28;19916;-81
2022/04/25 00:50:07;;;;;;;6.85;3.17;;;;;;;7.11;91.75;99343.88;5079915;28;20033;-79
2022/04/25 00:52:33;;;;;;;4.88;2.13;;;;;;;7.14;90.90;99354.19;5077381;28;20032;-79
2022/04/25 00:55:00;;;;;;;5.20;2.35;;;;;;;7.04;91.95;99360.97;5078046;28;20060;-79
2022/04/25 00:57:26;;;;;;;6.15;2.30;;;;;;;7.07;92.18;99365.91;5062276;28;20040;-78
2022/04/25 00:59:52;;;;;;;6.50;2.50;;;;;;;6.95;93.34;99366.56;5082904;28;20037;-79
2022/04/25 01:02:17;;;;;;;4.40;2.05;;;;;;;6.99;93.09;99363.47;5084406;28;20035;-79
2022/04/25 01:04:43;;;;;;;6.93;3.20;;;;;;;6.90;92.91;99365.53;5080546;28;20132;-79
2022/04/25 01:07:09;;;;;;;7.45;2.90;;;;;;;6.79;94.93;99363.47;5078136;28;20078;-79
2022/04/25 01:09:34;;;;;;;5.78;2.50;;;;;;;6.79;95.58;99366.16;5079786;28;20033;-79
2022/04/25 01:12:00;;;;;;;5.23;2.33;;;;;;;6.83;93.85;99365.50;5086826;28;20024;-81
2022/04/25 01:14:25;;;;;;;7.60;3.20;;;;;;;6.83;94.78;99372.72;5085320;28;20278;-79
2022/04/25 01:16:51;;;;;;;8.63;2.60;;;;;;;6.84;95.13;99369.84;5083069;28;20116;-79
2022/04/25 01:19:17;;;;;;;6.33;2.33;;;;;;;6.84;94.67;99369.84;5081263;28;20110;-79
2022/04/25 01:21:50;;;;;;;5.20;2.65;;;;;;;6.90;94.69;99368.19;5085800;28;20029;-80
2022/04/25 01:27:18;;;;;;;5.88;2.92;;;;;;;6.86;92.68;99359.75;5088293;28;20096;-80
2022/04/25 01:29:54;;;;;;;6.32;2.88;;;;;;;6.88;92.95;99352.34;5092615;28;20008;-81
2022/04/25 01:32:22;;;;;;;6.18;2.70;;;;;;;6.83;93.21;99353.97;5086647;28;20056;-81
2022/04/25 01:34:48;;;;;;;7.82;2.50;;;;;;;6.89;92.55;99353.97;5084139;28;20040;-81
2022/04/25 01:37:15;;;;;;;4.45;2.03;;;;;;;6.92;94.32;99339.38;5083703;28;20099;-82
2022/04/25 01:39:43;;;;;;;5.28;2.22;;;;;;;6.88;93.83;99338.94;5089083;28;20068;-81
2022/04/25 01:42:09;;;;;;;7.32;3.10;;;;;;;6.90;93.14;99342.25;5086977;28;20028;-78
2022/04/25 01:44:35;;;;;;;5.90;2.80;;;;;;;6.93;93.21;99338.34;5083339;28;20031;-81
2022/04/25 01:47:00;;;;;;;;;;;;;;;6.93;93.38;99336.47;5080742;28;20119;-81
2022/04/25 01:49:25;;;;;;;5.05;1.88;;;;;;;6.88;95.10;99335.44;5075425;28;19963;-80
2022/04/25 01:51:51;;;;;;;5.45;2.58;;;;;;;6.91;94.26;99335.03;5074915;28;20032;-80
2022/04/25 01:54:32;;;;;;;7.78;3.15;;;;;;;6.89;93.80;99337.09;5077842;28;20085;-81
2022/04/25 01:56:57;;;;;;;6.13;2.28;;;;;;;7.02;93.75;99342.44;5079673;28;20429;-81
2022/04/25 01:59:23;;;;;;;5.60;2.45;;;;;;;6.91;94.05;99340.38;5076997;28;20028;-82
2022/04/25 02:01:51;;;;;;;5.53;2.10;;;;;;;6.96;93.44;99337.94;5080502;28;20484;-81
2022/04/25 02:04:16;;;;;;;6.90;2.80;;;;;;;6.97;92.75;99337.72;5086593;28;20194;-81
2022/04/25 02:06:42;;;;;;;5.72;2.72;;;;;;;6.91;94.38;99341.22;5089064;28;20024;-81
2022/04/25 02:09:08;;;;;;;5.53;2.53;;;;;;;6.87;94.12;99339.16;5087774;28;20036;-82
2022/04/25 02:11:33;;;;;;;5.40;2.20;;;;;;;6.90;95.52;99344.91;5086654;28;20025;-82
2022/04/25 02:13:59;;;;;;;7.10;2.72;;;;;;;6.97;94.71;99340.41;5063755;28;20051;-82
2022/04/25 02:16:25;;;;;;;5.83;2.50;;;;;;;6.94;94.88;99346.16;5076834;28;20486;-82
2022/04/25 02:18:52;;;;;;;6.18;2.80;;;;;;;7.00;94.74;99357.06;5077276;28;20323;-81
2022/04/25 02:21:17;;;;;;;6.50;2.60;;;;;;;6.94;93.71;99364.91;5076984;28;20090;-81
2022/04/25 02:23:43;;;;;;;5.80;2.55;;;;;;;7.00;94.59;99354.38;5059614;28;20033;-80
2022/04/25 02:26:09;;;;;;;6.18;2.47;;;;;;;7.05;93.94;99357.25;5088929;28;20048;-79
2022/04/25 02:28:35;;;;;;;7.53;3.00;;;;;;;7.02;93.53;99355.00;5078226;28;20032;-79
2022/04/25 02:31:04;;;;;;;5.97;3.03;;;;;;;7.18;93.04;99354.56;5080881;28;20043;-79
2022/04/25 02:33:29;;;;;;;10.27;3.22;;;;;;;7.08;91.76;99356.84;5082801;28;20086;-79
2022/04/25 02:35:54;;;;;;;6.17;2.87;;;;;;;7.18;91.21;99360.75;5085422;28;20028;-79
2022/04/25 02:38:20;;;;;;;6.07;2.80;;;;;;;7.10;91.17;99352.94;5089263;28;20039;-80
2022/04/25 02:40:46;;;;;;;6.35;2.90;;;;;;;7.05;91.46;99352.72;5088078;28;20032;-81
2022/04/25 02:43:11;;;;;;;5.85;2.80;;;;;;;7.10;91.09;99347.56;5090501;28;20037;-80
2022/04/25 02:45:37;;;;;;;7.87;2.80;;;;;;;7.15;91.15;99350.47;5087678;28;20036;-80
2022/04/25 02:48:02;;;;;;;6.47;2.70;;;;;;;7.06;90.90;99343.66;5088076;28;20328;-80
2022/04/25 02:50:27;;;;;;;5.90;2.97;;;;;;;7.04;90.99;99326.16;5086894;28;20055;-80
2022/04/25 02:52:54;;;;;;;6.43;2.93;;;;;;;7.04;91.27;99335.00;5068090;28;20054;-81
2022/04/25 02:55:20;;;;;;;9.10;3.47;;;;;;;6.99;92.13;99340.16;5088020;28;20031;-80
2022/04/25 02:57:45;;;;;;;5.68;3.30;;;;;;;7.00;91.93;99324.91;5089477;28;20055;-82
2022/04/25 03:00:11;;;;;;;5.28;2.60;;;;;;;6.97;91.33;99328.84;5089239;28;20120;-81
2022/04/25 03:02:37;;;;;;;6.45;3.22;;;;;;;7.01;91.42;99323.88;5089422;28;20036;-81
2022/04/25 03:05:02;;;;;;;7.25;2.70;;;;;;;7.00;91.13;99322.25;5087543;28;20045;-81
2022/04/25 03:07:28;;;;;;;6.18;3.17;;;;;;;7.01;91.08;99324.72;5087439;28;20040;-81
2022/04/25 03:09:53;;;;;;;7.20;3.07;;;;;;;7.06;90.02;99321.41;5088209;28;20024;-81
2022/04/25 03:12:18;;;;;;;8.23;3.03;;;;;;;7.14;90.37;99322.03;5091134;28;20039;-82
2022/04/25 03:14:45;;;;;;;7.57;3.10;;;;;;;7.12;89.49;99321.41;5092096;28;20107;-82
2022/04/25 03:17:11;;;;;;;6.07;3.20;;;;;;;7.27;89.37;99318.47;5090776;28;20026;-82
2022/04/25 03:19:37;;;;;;;7.00;3.58;;;;;;;7.25;88.35;99324.06;5073398;28;20037;-82
2022/04/25 03:22:04;;;;;;;9.20;4.13;;;;;;;7.19;89.14;99332.09;5096203;28;20013;-82
2022/04/25 03:24:30;;;;;;;;;;;;;;;7.15;90.76;99331.72;5096189;28;20055;-83
2022/04/25 03:26:56;;;;;;;6.00;3.00;;;;;;;7.01;91.10;99327.38;5079306;28;19968;-83
2022/04/25 03:29:21;;;;;;;5.35;2.45;;;;;;;6.96;90.71;99327.22;5097776;28;20025;-83
2022/04/25 03:31:46;;;;;;;6.30;2.97;;;;;;;6.88;91.70;99330.91;5078135;28;20055;-83
2022/04/25 03:34:11;;;;;;;5.67;2.77;;;;;;;6.85;91.61;99330.50;5095030;28;20044;-83
2022/04/25 03:36:37;;;;;;;5.70;2.40;;;;;;;6.82;92.63;99326.38;5097848;28;20263;-83
2022/04/25 03:39:03;;;;;;;6.93;2.60;;;;;;;6.87;92.95;99337.31;5079856;28;20021;-83
2022/04/25 03:41:31;;;;;;;7.37;3.27;;;;;;;6.99;93.20;99323.28;5080249;28;20044;-84
2022/04/25 03:43:57;;;;;;;6.88;2.85;;;;;;;6.95;93.38;99339.78;5080131;28;20043;-84
2022/04/25 03:46:22;;;;;;;6.47;2.97;;;;;;;6.90;94.27;99339.56;5078995;28;20032;-83
2022/04/25 03:48:47;;;;;;;7.03;3.23;;;;;;;6.93;94.21;99346.38;5096498;28;20051;-82
2022/04/25 03:51:13;;;;;;;7.83;3.30;;;;;;;6.95;94.68;99339.78;5097080;28;20027;-83
2022/04/25 03:53:38;;;;;;;4.90;2.47;;;;;;;7.11;93.88;99340.38;5096967;28;20263;-83
2022/04/25 03:58:48;;;;;;;7.05;3.55;;;;;;;6.97;93.67;99351.09;5097259;28;20036;-83
2022/04/25 04:01:13;;;;;;;6.20;3.20;;;;;;;6.95;93.67;99355.03;5097712;28;20032;-81
2022/04/25 04:03:40;;;;;;;5.47;2.90;;;;;;;7.01;94.52;99350.66;5097826;28;20056;-82
2022/04/25 04:06:07;;;;;;;7.10;3.33;;;;;;;6.97;94.27;99352.97;5098000;28;20036;-82
2022/04/25 04:08:33;;;;;;;7.57;3.72;;;;;;;7.00;94.40;99351.69;5079855;28;20046;-81
2022/04/25 04:10:58;;;;;;;7.00;2.97;;;;;;;7.00;94.45;99349.03;5097602;28;20100;-80
2022/04/25 04:13:24;;;;;;;6.73;3.47;;;;;;;7.05;94.43;99355.41;5097016;28;20035;-79
2022/04/25 04:15:50;;;;;;;7.32;3.75;;;;;;;7.08;93.95;99357.69;5086924;28;20274;-78
2022/04/25 04:18:15;;;;;;;7.22;3.40;;;;;;;7.10;94.33;99358.28;5088285;28;20043;-79
2022/04/25 04:20:41;;;;;;;7.73;3.40;;;;;;;7.06;93.56;99362.41;5086205;28;20025;-80
2022/04/25 04:23:06;;;;;;;7.53;3.73;;;;;;;7.11;93.98;99365.31;5084296;28;20540;-80
2022/04/25 04:25:32;;;;;;;8.55;4.10;;;;;;;7.16;93.94;99365.50;5085705;28;20402;-79
2022/04/25 04:27:59;;;;;;;;;;;;;;;7.16;93.92;99370.88;5082062;28;20036;-79
2022/04/25 04:30:24;;;;;;;8.15;3.63;;;;;;;7.13;94.69;99381.16;5083227;28;19919;-79
2022/04/25 04:32:52;;;;;;;10.63;4.53;;;;;;;7.13;94.68;99387.34;5086628;28;20029;-80
2022/04/25 04:38:05;;;;;;;10.13;4.03;;;;;;;7.17;94.98;99393.09;5066269;28;20041;-79
2022/04/25 04:40:31;;;;;;;8.32;3.85;;;;;;;7.19;95.36;99396.38;5086601;28;20463;-80
2022/04/25 04:42:57;;;;;;;11.63;5.18;;;;;;;7.18;95.54;99395.56;5083890;28;20080;-79
2022/04/25 04:45:22;;;;;;;;;;;;;;;7.16;94.91;99403.00;5086492;28;20032;-79
2022/04/25 04:47:48;;;;;;;9.18;5.07;;;;;;;7.20;95.27;99406.91;5091226;28;19938;-79
2022/04/25 04:50:15;;;;;;;10.17;4.70;;;;;;;7.20;95.04;99414.94;5092194;28;20028;-78
2022/04/25 04:52:44;;;;;;;9.85;4.25;;;;;;;7.32;95.88;99415.16;5078792;28;20021;-79
2022/04/25 04:55:10;;;;;;;9.95;4.78;;;;;;;7.34;95.80;99415.78;5095989;28;20024;-79
2022/04/25 04:57:37;;;;;;;9.85;5.47;;;;;;;7.31;95.39;99424.22;5096409;28;20157;-81
2022/04/25 05:00:04;;;;;;;10.90;5.40;;;;;;;7.45;95.60;99419.66;5079035;28;20044;-80
2022/04/25 05:02:29;;;;;;;11.23;4.70;;;;;;;7.39;95.63;99426.66;5088708;28;20024;-78
2022/04/25 05:04:55;;;;;;;10.13;5.20;;;;;;;7.41;95.74;99421.94;5085373;28;20134;-78
2022/04/25 05:07:20;;;;;;;10.63;5.60;;;;;;;7.35;95.05;99421.91;5082560;28;20034;-78
2022/04/25 05:09:46;;;;;;;11.82;5.55;;;;;;;7.31;95.29;99433.09;5082106;28;20036;-78
2022/04/25 05:12:11;;;;;;;10.40;4.77;;;;;;;7.30;95.61;99436.78;5078734;28;20040;-77
2022/04/25 05:14:36;;;;;;;12.60;5.47;;;;;;;7.31;95.32;99434.94;5080447;28;20021;-77
2022/04/25 05:17:02;;;;;;;11.57;5.10;;;;;;;7.34;95.75;99444.41;5081803;28;20351;-77
2022/04/25 05:19:27;;;;;;;11.77;5.45;;;;;;;7.30;95.66;99436.78;5084836;28;20043;-78
2022/04/25 05:21:52;;;;;;;17.73;7.13;;;;;;;7.33;95.80;99438.25;5086723;28;20092;-77
2022/04/25 05:24:18;;;;;;;13.47;6.97;;;;;;;7.37;96.19;99446.66;5082549;28;20033;-78
2022/04/25 05:26:43;;;;;;;12.93;6.10;;;;;;;7.36;96.13;99447.69;5082650;28;20398;-78
2022/04/25 05:29:08;;;;;;;14.13;6.63;;;;;;;7.37;96.21;99446.66;5081324;28;20035;-78
2022/04/25 05:31:34;;;;;;;13.03;6.13;;;;;;;7.41;96.16;99446.03;5082864;28;20058;-78
2022/04/25 05:34:00;;;;;;;15.50;6.32;;;;;;;7.41;96.14;99448.72;5080866;28;20459;-78
2022/04/25 05:36:25;;;;;;;14.88;6.53;;;;;;;7.42;96.49;99436.97;5079106;28;20028;-78
2022/04/25 05:38:50;;;;;;;13.93;6.60;;;;;;;7.42;96.54;99444.19;5079379;28;20067;-78
2022/04/25 05:41:16;;;;;;;14.47;6.37;;;;;;;7.44;97.22;99445.63;5062538;28;20309;-78
2022/04/25 05:43:42;;;;;;;18.58;7.68;;;;;;;7.56;97.11;99445.81;5064595;28;20021;-78
2022/04/25 05:46:07;;;;;;;16.05;7.60;;;;;;;7.59;97.22;99451.59;5063338;28;20059;-78
2022/04/25 05:54:01;;;;;;;17.55;7.95;;;;;;;7.72;95.27;99463.31;5084481;28;20038;-78
2022/04/25 05:56:27;;;;;;;19.15;8.60;;;;;;;7.65;95.08;99457.97;5084790;28;20033;-78
2022/04/25 05:58:54;;;;;;;19.50;7.70;;;;;;;7.64;95.11;99467.88;5084207;28;20033;-78
2022/04/25 06:01:19;;;;;;;13.00;6.32;;;;;;;7.71;95.38;99469.69;5084133;28;20321;-78
2022/04/25 06:03:45;;;;;;;14.98;7.90;;;;;;;7.72;95.58;99469.50;5067968;28;20052;-78
2022/04/25 06:06:10;;;;;;;14.50;7.05;;;;;;;7.71;96.10;99470.53;5085729;28;20530;-78
2022/04/25 06:08:36;;;;;;;16.70;7.70;;;;;;;7.63;95.18;99473.44;5067242;28;20040;-78
2022/04/25 06:11:03;;;;;;;14.48;6.63;;;;;;;7.67;94.95;99485.41;5085570;28;20033;-78
2022/04/25 06:13:28;;;;;;;16.20;7.93;;;;;;;7.58;94.92;99479.41;5084669;28;20497;-78
2022/04/25 06:15:54;;;;;;;15.33;6.57;;;;;;;7.62;94.98;99482.50;5067190;28;20025;-78
2022/04/25 06:18:19;;;;;;;17.33;7.65;;;;;;;7.65;94.95;99490.97;5085061;28;20101;-78
2022/04/25 06:20:44;;;;;;;13.63;6.23;;;;;;;7.77;95.23;99484.97;5085914;28;20025;-79
2022/04/25 06:23:10;;;;;;;13.10;6.30;;;;;;;7.72;95.03;99490.13;5088708;28;20028;-79
2022/04/25 06:25:37;;;;;;;13.30;6.63;;;;;;;7.68;94.04;99495.09;5090786;28;20694;-79
2022/04/25 06:28:03;;;;;;;14.10;6.25;;;;;;;7.62;93.73;99494.06;5074096;28;20048;-80
2022/04/25 06:30:29;;;;;;;14.20;5.68;;;;;;;7.60;93.57;99489.94;5072647;28;20047;-79
2022/04/25 06:32:57;;;;;;;15.25;5.80;;;;;;;7.66;93.71;99492.63;5090675;28;20028;-79
2022/04/25 06:35:22;;;;;;;10.63;4.63;;;;;;;7.59;93.37;99496.34;5089524;28;20036;-80
2022/04/25 06:37:48;;;;;;;9.67;4.67;;;;;;;7.60;93.38;99496.13;5090570;28;20040;-80
2022/04/25 06:40:13;;;;;;;10.45;5.25;;;;;;;7.54;93.30;99506.84;5091473;28;20324;-79
2022/04/25 06:42:39;;;;;;;12.60;5.53;;;;;;;7.53;93.36;99497.97;5091910;28;20043;-80
2022/04/25 06:45:05;;;;;;;15.80;6.50;;;;;;;7.58;93.62;99500.03;5094813;28;20080;-80
2022/04/25 06:47:30;;;;;;;;;;;;;;;7.56;93.92;99504.78;5097362;28;20028;-80
2022/04/25 06:49:55;;;;;;;14.52;6.43;;;;;;;7.65;94.26;99503.56;5097337;28;19924;-79
2022/04/25 06:52:21;;;;;;;14.23;6.73;;;;;;;7.68;93.93;99507.69;5097613;28;20024;-80
2022/04/25 06:54:46;;;;;;;15.30;6.47;;;;;;;7.62;93.68;99509.31;5096548;28;20032;-81
2022/04/25 06:57:12;;;;;;;13.35;6.05;;;;;;;7.54;92.82;99509.53;5095064;28;20037;-81
2022/04/25 06:59:38;;;;;;;14.88;7.22;;;;;;;7.52;93.15;99520.47;5094668;28;20080;-81
2022/04/25 07:02:04;;;;;;;15.38;6.60;;;;;;;7.61;93.17;99518.41;5094323;28;20028;-81
2022/04/25 07:04:29;;;;;;;17.83;7.50;;;;;;;7.62;92.79;99520.06;5093066;28;20048;-80
2022/04/25 07:06:55;;;;;;;14.93;6.40;;;;;;;7.55;92.63;99517.38;5092387;28;20132;-81
2022/04/25 07:09:20;;;;;;;16.50;7.03;;;;;;;7.71;93.06;99529.50;5091466;28;20474;-81
2022/04/25 07:11:46;;;;;;;16.47;7.20;;;;;;;7.57;92.77;99517.97;5073919;28;20025;-80
2022/04/25 07:14:12;;;;;;;;;;;;;;;7.62;93.00;99526.25;5092791;28;20020;-82
2022/04/25 07:16:39;;;;;;;17.80;8.17;;;;;;;7.65;92.94;99525.00;5091133;28;19928;-81
2022/04/25 07:19:06;;;;;;;15.23;6.78;;;;;;;7.65;92.02;99527.69;5091448;28;20047;-81
2022/04/25 07:29:47;;;;;;;14.23;6.05;;;;;;;7.75;93.03;99529.94;5090588;28;20033;-80
2022/04/25 07:32:13;;;;;;;16.17;7.00;;;;;;;7.80;92.13;99533.63;5089593;28;20141;-81
2022/04/25 07:34:39;;;;;;;12.88;6.57;;;;;;;7.90;93.00;99523.28;5094660;28;20036;-80
2022/04/25 07:37:04;;;;;;;12.48;5.72;;;;;;;8.00;91.84;99528.25;5095980;28;20088;-82
2022/04/25 07:39:30;;;;;;;13.05;6.47;;;;;;;7.96;91.55;99538.56;5095145;28;20032;-82
2022/04/25 07:41:55;;;;;;;16.15;6.75;;;;;;;7.97;91.89;99544.75;5091562;28;20042;-82
2022/04/25 07:44:21;;;;;;;14.63;6.90;;;;;;;7.98;91.56;99546.41;5090942;28;20067;-83
2022/04/25 07:46:46;;;;;;;17.37;7.43;;;;;;;8.01;91.09;99546.00;5072547;28;20067;-82
2022/04/25 07:49:12;;;;;;;14.43;7.32;;;;;;;8.14;91.41;99539.75;5091410;28;20020;-82
2022/04/25 07:51:40;;;;;;;15.63;7.75;;;;;;;8.16;89.37;99543.06;5089047;28;20044;-82
2022/04/25 07:54:08;;;;;;;13.00;6.25;;;;;;;8.00;89.16;99549.72;5088611;28;20032;-82
2022/04/25 07:56:35;;;;;;;12.75;5.68;;;;;;;8.04;88.95;99555.47;5087280;28;20130;-83
2022/04/25 07:59:00;;;;;;;13.55;5.80;;;;;;;7.92;88.23;99558.78;5088894;28;20055;-82
2022/04/25 08:01:29;;;;;;;10.43;5.07;;;;;;;7.88;88.48;99560.22;5071341;28;20024;-83
2022/04/25 08:04:03;;;;;;;12.77;5.55;;;;;;;7.91;88.88;99567.03;5071289;28;20145;-83
2022/04/25 08:06:28;;;;;;;13.63;6.20;;;;;;;7.83;87.75;99565.41;5087083;28;20086;-83
2022/04/25 08:08:54;;;;;;;13.17;6.03;;;;;;;7.93;87.99;99573.03;5070554;28;20051;-83
2022/04/25 08:11:21;;;;;;;12.95;6.30;;;;;;;7.87;88.43;99571.19;5067540;28;20332;-82
2022/04/25 08:19:18;;;;;;;14.63;7.00;;;;;;;8.00;89.08;99580.03;5087214;28;20084;-83
2022/04/25 08:21:44;;;;;;;16.48;7.30;;;;;;;7.92;88.15;99588.28;5085977;28;20032;-83
2022/04/25 08:24:11;;;;;;;22.23;7.53;;;;;;;7.89;88.64;99585.19;5085285;28;20044;-82
2022/04/25 08:26:37;;;;;;;14.73;7.18;;;;;;;7.92;88.35;99588.28;5085362;28;20021;-83
2022/04/25 08:29:03;;;;;;;17.70;8.35;;;;;;;7.92;88.71;99590.97;5085700;28;20051;-84
2022/04/25 08:31:30;;;;;;;17.70;8.10;;;;;;;7.96;88.36;99594.91;5066827;28;20463;-84
2022/04/25 08:33:59;;;;;;;17.48;8.63;;;;;;;8.00;88.29;99595.31;5067222;28;20025;-84
2022/04/25 08:36:24;;;;;;;18.83;8.68;;;;;;;8.02;87.89;99607.50;5067057;28;20052;-84
2022/04/25 08:38:50;;;;;;;18.13;9.13;;;;;;;7.97;87.13;99603.78;5067467;28;20033;-85
2022/04/25 08:41:17;;;;;;;;;;;;;;;8.10;87.95;99616.34;5068493;28;20032;-86
2022/04/25 08:43:43;;;;;;;18.13;7.93;;;;;;;8.24;87.79;99621.47;5068045;28;19919;-83
2022/04/25 08:46:09;;;;;;;17.90;8.32;;;;;;;8.02;86.94;99612.84;5085810;28;20056;-84
2022/04/25 08:48:35;;;;;;;21.48;9.82;;;;;;;8.06;87.47;99613.22;5067029;28;20047;-84
2022/04/25 08:51:01;;;;;;;16.92;8.25;;;;;;;8.01;87.00;99615.75;5066144;28;20028;-84
2022/04/25 08:53:28;;;;;;;20.20;9.73;;;;;;;8.01;87.79;99618.44;5064964;28;20458;-84
2022/04/25 08:55:54;;;;;;;18.23;8.82;;;;;;;8.16;87.69;99624.38;5064964;28;20052;-84
2022/04/25 08:58:21;;;;;;;16.88;8.45;;;;;;;8.20;87.29;99627.47;5083485;28;20035;-84
2022/04/25 09:00:47;;;;;;;16.95;8.90;;;;;;;8.27;86.95;99623.75;5065220;28;20032;-85
2022/04/25 09:03:14;;;;;;;17.95;7.47;;;;;;;8.16;86.41;99635.13;5082135;28;20032;-85
2022/04/25 09:05:41;;;;;;;14.55;7.50;;;;;;;8.41;86.95;99632.66;5082318;28;20448;-85
2022/04/25 09:08:07;;;;;;;20.75;7.70;;;;;;;8.53;85.83;99640.88;5080547;28;20029;-85
2022/04/25 09:10:36;;;;;;;15.20;8.05;;;;;;;8.40;85.46;99639.03;5064271;28;20028;-85
2022/04/25 09:13:02;;;;;;;17.08;8.27;;;;;;;8.30;85.83;99646.66;5063858;28;20463;-85
2022/04/25 09:15:27;;;;;;;15.75;6.97;;;;;;;8.38;85.55;99643.78;5063372;28;20066;-84
2022/04/25 09:17:54;;;;;;;14.38;7.10;;;;;;;8.39;86.12;99645.44;5064271;28;20372;-84
2022/04/25 09:20:21;;;;;;;14.07;6.80;;;;;;;8.39;86.23;99653.50;5081363;28;20032;-84
2022/04/25 09:22:47;;;;;;;15.98;7.47;;;;;;;8.55;85.96;99645.00;5082704;28;20032;-86
2022/04/25 09:25:17;;;;;;;11.88;6.30;;;;;;;8.60;85.81;99653.22;5080415;28;20055;-84
2022/04/25 09:27:44;;;;;;;12.73;6.30;;;;;;;8.56;85.00;99656.56;5063245;28;20120;-84
2022/04/25 09:30:39;;;;;;;13.40;6.63;;;;;;;8.61;85.17;99648.66;5080149;28;20032;-84
2022/04/25 09:33:21;;;;;;;13.38;6.57;;;;;;;8.55;84.58;99655.72;5060440;28;20055;-85
2022/04/25 09:35:56;;;;;;;10.95;4.78;;;;;;;8.72;83.16;99655.28;5064798;28;20021;-83
2022/04/25 09:38:32;;;;;;;10.73;5.22;;;;;;;8.78;82.36;99659.81;5063809;28;20035;-84
2022/04/25 09:41:00;;;;;;;11.55;5.22;;;;;;;8.65;82.80;99650.72;5082760;28;20029;-84
2022/04/25 09:43:32;;;;;;;9.40;4.50;;;;;;;8.86;82.34;99651.50;5081274;28;20043;-84
2022/04/25 09:46:03;;;;;;;10.02;4.72;;;;;;;9.02;81.66;99651.84;5081160;28;20032;-83
2022/04/25 09:48:28;;;;;;;8.65;4.70;;;;;;;9.08;81.49;99647.47;5063403;28;20086;-85
2022/04/25 09:51:05;;;;;;;8.75;4.60;;;;;;;9.16;80.49;99651.78;5063823;28;20376;-83
2022/04/25 09:53:53;;;;;;;10.15;4.57;;;;;;;9.30;79.90;99656.06;5047864;28;20089;-84
2022/04/25 09:56:30;;;;;;;10.52;4.78;;;;;;;9.45;80.13;99650.38;5083232;28;20035;-84
2022/04/25 09:59:08;;;;;;;12.82;4.72;;;;;;;9.35;78.16;99653.53;5066766;28;20070;-84
2022/04/25 10:01:39;;;;;;;11.75;4.93;;;;;;;9.54;78.15;99649.06;5083439;28;20092;-84
2022/04/25 10:04:24;;;;;;;11.65;5.20;;;;;;;9.73;78.91;99656.19;5064292;28;20071;-85
2022/04/25 10:06:50;;;;;;;13.80;6.20;;;;;;;9.89;78.79;99655.66;5061931;28;20052;-84
2022/04/25 10:09:17;;;;;;;10.05;4.65;;;;;;;9.72;79.52;99655.34;5080944;28;20029;-85
2022/04/25 10:11:47;;;;;;;8.35;4.45;;;;;;;9.90;78.34;99656.47;5079634;28;20083;-85
2022/04/25 10:14:12;;;;;;;9.50;4.32;;;;;;;9.77;77.94;99661.97;5062740;28;20032;-86
2022/04/25 10:16:40;;;;;;;10.75;4.15;;;;;;;9.64;77.84;99660.19;5081487;28;20033;-86
2022/04/25 10:19:06;;;;;;;12.32;4.85;;;;;;;9.29;78.95;99659.78;5079886;28;20036;-85
2022/04/25 10:21:35;;;;;;;11.65;5.00;;;;;;;9.47;79.95;99661.75;5081116;28;20115;-84
2022/04/25 10:24:08;;;;;;;10.32;4.72;;;;;;;9.43;79.56;99665.91;5062093;28;20374;-87
2022/04/25 10:26:33;;;;;;;11.70;4.78;;;;;;;9.46;80.07;99668.16;5062817;28;20025;-84
2022/04/25 10:29:08;;;;;;;11.77;5.50;;;;;;;9.57;79.35;99668.28;5080628;28;20447;-85
2022/04/25 10:31:41;;;;;;;12.00;5.72;;;;;;;9.63;79.01;99667.44;5063303;28;20048;-86
2022/04/25 10:34:14;;;;;;;13.05;6.18;;;;;;;9.53;78.81;99677.00;5080078;28;20036;-83
2022/04/25 10:36:39;;;;;;;14.38;7.00;;;;;;;9.44;79.17;99681.00;5080498;28;20036;-82
2022/04/25 10:39:24;;;;;;;12.90;6.30;;;;;;;9.32;79.30;99683.53;5079114;28;20062;-83
2022/04/25 10:44:37;;;;;;;13.52;5.45;;;;;;;9.26;79.58;99676.34;5079973;28;20044;-83
2022/04/25 10:47:05;;;;;;;10.80;5.57;;;;;;;9.29;79.52;99675.91;5082158;28;20024;-83
2022/04/25 10:49:42;;;;;;;13.27;6.82;;;;;;;9.36;79.63;99674.81;5089765;28;20033;-82
2022/04/25 10:52:53;;;;;;;13.07;6.57;;;;;;;9.39;79.28;99673.56;5073657;28;20036;-82
2022/04/25 10:55:30;;;;;;;9.60;4.88;;;;;;;9.68;78.39;99677.53;5091582;28;20037;-82
2022/04/25 10:58:12;;;;;;;14.43;5.85;;;;;;;9.90;77.68;99680.69;5090842;28;20039;-82
2022/04/25 11:00:38;;;;;;;10.10;4.97;;;;;;;10.08;77.60;99675.38;5091362;28;20473;-81
2022/04/25 11:03:12;;;;;;;12.60;5.63;;;;;;;9.96;76.28;99677.13;5074778;28;20028;-81
2022/04/25 11:05:44;;;;;;;13.05;6.35;;;;;;;9.97;76.85;99673.41;5052166;28;20045;-81
2022/04/25 11:08:16;;;;;;;15.95;6.35;;;;;;;9.97;76.70;99676.91;5050387;28;20052;-81
2022/04/25 11:10:44;;;;;;;12.55;5.70;;;;;;;10.06;76.33;99680.97;5051819;28;20059;-81
2022/04/25 11:13:10;;;;;;;10.85;4.90;;;;;;;10.03;76.12;99681.41;5049029;28;20037;-80
2022/04/25 11:15:47;;;;;;;13.18;5.63;;;;;;;9.94;76.25;99684.59;5044771;28;20044;-82
2022/04/25 11:18:33;;;;;;;16.20;5.90;;;;;;;9.95;76.96;99692.44;5042563;28;20120;-82
2022/04/25 11:21:12;;;;;;;11.00;5.60;;;;;;;9.99;76.62;99690.97;5042448;28;20033;-82
2022/04/25 11:23:43;;;;;;;11.73;5.82;;;;;;;10.06;77.51;99693.59;5040382;28;20029;-83
2022/04/25 11:26:30;;;;;;;14.05;6.10;;;;;;;9.98;77.41;99697.41;5041895;28;20033;-82
2022/04/25 11:28:55;;;;;;;10.80;5.68;;;;;;;10.03;76.41;99694.84;5033013;28;20107;-82
2022/04/25 11:31:23;;;;;;;12.43;5.68;;;;;;;9.84;77.67;99703.94;5042622;28;20033;-82
2022/04/25 11:33:50;;;;;;;16.70;7.43;;;;;;;9.87;77.35;99697.25;5042221;28;20034;-81
2022/04/25 11:36:17;;;;;;;16.92;8.43;;;;;;;9.90;78.25;99704.91;5042846;28;20045;-82
2022/04/25 11:41:33;;;;;;;12.07;6.35;;;;;;;10.14;78.47;99704.13;5044708;28;20129;-83
2022/04/25 11:44:01;;;;;;;12.27;6.65;;;;;;;10.19;78.96;99704.31;5045479;28;20041;-82
2022/04/25 11:46:28;;;;;;;13.02;5.78;;;;;;;10.33;79.66;99713.94;5047939;28;20037;-83
2022/04/25 11:48:55;;;;;;;11.00;5.65;;;;;;;10.47;78.97;99708.41;5046566;28;20457;-83
2022/04/25 11:51:26;;;;;;;;;;;;;;;10.49;79.20;99707.16;5046026;28;20031;-83
2022/04/25 11:53:53;;;;;;;11.75;5.47;;;;;;;10.51;77.51;99715.00;5044926;28;19996;-82
2022/04/25 11:56:21;;;;;;;11.15;5.20;;;;;;;10.47;76.88;99711.94;5045021;28;20033;-83
2022/04/25 11:58:47;;;;;;;12.68;6.32;;;;;;;10.57;75.69;99712.22;5045482;28;20040;-83
2022/04/25 12:01:14;;;;;;;9.73;5.18;;;;;;;10.67;76.33;99715.25;5044091;28;20448;-83
2022/04/25 12:03:39;;;;;;;11.02;5.30;;;;;;;10.60;76.80;99710.97;5044187;28;20126;-82
2022/04/25 12:06:12;;;;;;;10.98;5.28;;;;;;;10.68;75.96;99713.38;5048463;28;20460;-82
2022/04/25 12:16:54;;;;;;;10.68;4.55;;;;;;;10.78;74.57;99722.59;5043227;28;20076;-81
2022/04/25 12:19:22;;;;;;;10.85;5.57;;;;;;;10.80;74.29;99727.75;5044523;28;20041;-81
2022/04/25 12:21:58;;;;;;;10.95;5.50;;;;;;;11.01;73.74;99721.94;5044043;28;20041;-83